sensor_id;sensor_type;location;lat;lon;timestamp;pressure;altitude;pressure_sealevel;temperature;humidity
64230;BME280;50547;49.498;0.092;2024-01-10T11:07:22;1023.62;;;0.31;63.83
64230;BME280;50547;49.498;0.092;2024-01-10T11:09:52;1023.60;;;0.68;62.42
64230;BME280;50547;49.498;0.092;2024-01-10T11:12:32;1023.64;;;1.09;60.47
64230;BME280;50547;49.498;0.092;2024-01-10T11:15:14;1023.58;;;1.19;59.44
64230;BME280;50547;49.498;0.092;2024-01-10T11:18:03;1023.62;;;1.41;58.83
64230;BME280;50547;49.498;0.092;2024-01-10T11:20:51;1023.56;;;1.52;58.20
64230;BME280;50547;49.498;0.092;2024-01-10T11:23:36;1023.46;;;1.61;57.54
64230;BME280;50547;49.498;0.092;2024-01-10T11:26:07;1023.62;;;1.55;57.91
64230;BME280;50547;49.498;0.092;2024-01-10T11:28:36;1023.60;;;1.46;58.10
64230;BME280;50547;49.498;0.092;2024-01-10T11:31:06;1023.58;;;1.79;57.28
64230;BME280;50547;49.498;0.092;2024-01-10T11:33:35;1023.46;;;1.70;57.49
64230;BME280;50547;49.498;0.092;2024-01-10T11:36:07;1023.54;;;1.32;59.64
64230;BME280;50547;49.498;0.092;2024-01-10T11:38:41;1023.42;;;1.55;58.28
64230;BME280;50547;49.498;0.092;2024-01-10T11:41:11;1023.56;;;1.74;57.74
64230;BME280;50547;49.498;0.092;2024-01-10T11:43:40;1023.44;;;1.72;57.60
64230;BME280;50547;49.498;0.092;2024-01-10T11:46:09;1023.44;;;1.80;57.75
64230;BME280;50547;49.498;0.092;2024-01-10T11:48:38;1023.42;;;2.13;56.71
64230;BME280;50547;49.498;0.092;2024-01-10T11:51:07;1023.42;;;2.31;55.99
64230;BME280;50547;49.498;0.092;2024-01-10T11:53:38;1023.42;;;2.42;56.32
64230;BME280;50547;49.498;0.092;2024-01-10T11:56:09;1023.44;;;1.78;58.59
64230;BME280;50547;49.498;0.092;2024-01-10T11:58:52;1023.38;;;1.26;60.24
64230;BME280;50547;49.498;0.092;2024-01-10T12:01:22;1023.38;;;1.67;59.22
64230;BME280;50547;49.498;0.092;2024-01-10T12:03:52;1023.38;;;1.94;58.04
64230;BME280;50547;49.498;0.092;2024-01-10T12:06:21;1023.34;;;1.62;58.50
64230;BME280;50547;49.498;0.092;2024-01-10T12:08:51;1023.34;;;1.32;59.49
64230;BME280;50547;49.498;0.092;2024-01-10T12:11:18;1023.32;;;1.17;59.53
64230;BME280;50547;49.498;0.092;2024-01-10T12:13:47;1023.30;;;1.50;58.75
64230;BME280;50547;49.498;0.092;2024-01-10T12:16:15;1023.24;;;1.20;58.67
64230;BME280;50547;49.498;0.092;2024-01-10T12:18:44;1023.24;;;0.93;60.05
64230;BME280;50547;49.498;0.092;2024-01-10T12:21:13;1023.20;;;1.20;58.75
64230;BME280;50547;49.498;0.092;2024-01-10T12:23:42;1023.18;;;1.05;59.45
64230;BME280;50547;49.498;0.092;2024-01-10T12:26:11;1023.20;;;1.27;58.53
64230;BME280;50547;49.498;0.092;2024-01-10T12:28:40;1023.20;;;1.50;56.71
64230;BME280;50547;49.498;0.092;2024-01-10T12:31:09;1023.13;;;1.74;55.91
64230;BME280;50547;49.498;0.092;2024-01-10T12:33:38;1023.11;;;1.72;56.75
64230;BME280;50547;49.498;0.092;2024-01-10T12:36:08;1023.03;;;1.49;57.67
64230;BME280;50547;49.498;0.092;2024-01-10T12:38:38;1022.97;;;1.64;57.27
64230;BME280;50547;49.498;0.092;2024-01-10T12:41:07;1022.99;;;1.90;55.91
64230;BME280;50547;49.498;0.092;2024-01-10T12:43:36;1022.91;;;1.36;57.61
64230;BME280;50547;49.498;0.092;2024-01-10T12:46:06;1022.93;;;1.29;57.77
64230;BME280;50547;49.498;0.092;2024-01-10T12:48:36;1022.89;;;1.45;56.75
64230;BME280;50547;49.498;0.092;2024-01-10T12:51:05;1022.87;;;1.31;56.75
64230;BME280;50547;49.498;0.092;2024-01-10T12:53:31;1022.89;;;1.39;56.27
64230;BME280;50547;49.498;0.092;2024-01-10T12:56:00;1022.83;;;1.70;55.31
64230;BME280;50547;49.498;0.092;2024-01-10T12:58:29;1022.85;;;1.55;55.61
64230;BME280;50547;49.498;0.092;2024-01-10T13:00:58;1022.81;;;1.62;55.58
64230;BME280;50547;49.498;0.092;2024-01-10T13:03:27;1022.83;;;1.18;55.97
64230;BME280;50547;49.498;0.092;2024-01-10T13:05:56;1022.81;;;1.54;55.52
64230;BME280;50547;49.498;0.092;2024-01-10T13:08:25;1022.79;;;1.60;54.76
64230;BME280;50547;49.498;0.092;2024-01-10T13:10:54;1022.75;;;1.59;54.30
64230;BME280;50547;49.498;0.092;2024-01-10T13:13:23;1022.77;;;1.43;54.84
64230;BME280;50547;49.498;0.092;2024-01-10T13:15:52;1022.62;;;1.11;55.44
64230;BME280;50547;49.498;0.092;2024-01-10T13:18:21;1022.66;;;1.07;54.69
64230;BME280;50547;49.498;0.092;2024-01-10T13:20:51;1022.64;;;1.08;53.95
64230;BME280;50547;49.498;0.092;2024-01-10T13:23:20;1022.64;;;1.25;53.24
64230;BME280;50547;49.498;0.092;2024-01-10T13:25:50;1022.66;;;0.94;54.04
64230;BME280;50547;49.498;0.092;2024-01-10T13:28:19;1022.68;;;1.01;53.71
64230;BME280;50547;49.498;0.092;2024-01-10T13:30:48;1022.62;;;1.23;53.30
64230;BME280;50547;49.498;0.092;2024-01-10T13:33:17;1022.68;;;1.53;52.17
64230;BME280;50547;49.498;0.092;2024-01-10T13:35:46;1022.64;;;1.71;51.92
64230;BME280;50547;49.498;0.092;2024-01-10T13:38:15;1022.62;;;1.84;51.91
64230;BME280;50547;49.498;0.092;2024-01-10T13:40:44;1022.60;;;1.95;52.18
64230;BME280;50547;49.498;0.092;2024-01-10T13:43:13;1022.56;;;1.98;53.10
64230;BME280;50547;49.498;0.092;2024-01-10T13:45:42;1022.54;;;2.21;51.89
64230;BME280;50547;49.498;0.092;2024-01-10T13:48:11;1022.44;;;1.62;53.20
64230;BME280;50547;49.498;0.092;2024-01-10T13:50:40;1022.52;;;1.86;53.17
64230;BME280;50547;49.498;0.092;2024-01-10T13:53:09;1022.50;;;1.76;53.00
64230;BME280;50547;49.498;0.092;2024-01-10T13:55:58;1022.44;;;1.68;52.98
64230;BME280;50547;49.498;0.092;2024-01-10T13:58:27;1022.44;;;1.48;52.91
64230;BME280;50547;49.498;0.092;2024-01-10T14:00:56;1022.42;;;1.99;52.11
64230;BME280;50547;49.498;0.092;2024-01-10T14:03:25;1022.40;;;2.16;51.33
64230;BME280;50547;49.498;0.092;2024-01-10T14:05:54;1022.42;;;1.99;51.53
64230;BME280;50547;49.498;0.092;2024-01-10T14:08:23;1022.40;;;2.01;51.79
64230;BME280;50547;49.498;0.092;2024-01-10T14:10:52;1022.42;;;1.83;51.80
64230;BME280;50547;49.498;0.092;2024-01-10T14:13:21;1022.44;;;1.86;51.70
64230;BME280;50547;49.498;0.092;2024-01-10T14:15:50;1022.42;;;1.64;51.26
64230;BME280;50547;49.498;0.092;2024-01-10T14:18:19;1022.40;;;1.97;51.37
64230;BME280;50547;49.498;0.092;2024-01-10T14:20:58;1022.44;;;1.75;51.20
64230;BME280;50547;49.498;0.092;2024-01-10T14:23:27;1022.48;;;2.10;50.04
64230;BME280;50547;49.498;0.092;2024-01-10T14:25:56;1022.44;;;2.11;49.55
64230;BME280;50547;49.498;0.092;2024-01-10T14:28:25;1022.46;;;2.17;49.60
64230;BME280;50547;49.498;0.092;2024-01-10T14:30:54;1022.44;;;2.16;49.67
64230;BME280;50547;49.498;0.092;2024-01-10T14:33:23;1022.46;;;1.86;50.07
64230;BME280;50547;49.498;0.092;2024-01-10T14:35:52;1022.42;;;1.77;49.45
64230;BME280;50547;49.498;0.092;2024-01-10T14:38:21;1022.42;;;1.71;49.37
64230;BME280;50547;49.498;0.092;2024-01-10T14:40:50;1022.44;;;1.79;48.47
64230;BME280;50547;49.498;0.092;2024-01-10T14:43:24;1022.50;;;2.13;47.54
64230;BME280;50547;49.498;0.092;2024-01-10T14:45:53;1022.54;;;2.83;46.03
64230;BME280;50547;49.498;0.092;2024-01-10T14:48:22;1022.50;;;3.21;45.38
64230;BME280;50547;49.498;0.092;2024-01-10T14:50:51;1022.50;;;3.12;45.88
64230;BME280;50547;49.498;0.092;2024-01-10T14:53:20;1022.56;;;3.01;47.74
64230;BME280;50547;49.498;0.092;2024-01-10T14:55:49;1022.52;;;2.79;48.56
64230;BME280;50547;49.498;0.092;2024-01-10T14:58:19;1022.58;;;2.53;49.21
64230;BME280;50547;49.498;0.092;2024-01-10T15:00:46;1022.60;;;2.71;49.83
64230;BME280;50547;49.498;0.092;2024-01-10T15:03:15;1022.64;;;2.99;47.53
64230;BME280;50547;49.498;0.092;2024-01-10T15:05:44;1022.64;;;3.15;47.14
64230;BME280;50547;49.498;0.092;2024-01-10T15:08:13;1022.66;;;3.15;46.62
64230;BME280;50547;49.498;0.092;2024-01-10T15:10:42;1022.66;;;3.14;46.72
64230;BME280;50547;49.498;0.092;2024-01-10T15:13:11;1022.68;;;2.96;47.53
64230;BME280;50547;49.498;0.092;2024-01-10T15:15:40;1022.66;;;2.53;48.44
64230;BME280;50547;49.498;0.092;2024-01-10T15:18:10;1022.66;;;2.56;48.79
64230;BME280;50547;49.498;0.092;2024-01-10T15:20:39;1022.69;;;2.63;48.54
64230;BME280;50547;49.498;0.092;2024-01-10T15:23:08;1022.68;;;2.91;47.31
64230;BME280;50547;49.498;0.092;2024-01-10T15:25:37;1022.69;;;3.12;45.83
64230;BME280;50547;49.498;0.092;2024-01-10T15:28:06;1022.71;;;3.42;46.08
64230;BME280;50547;49.498;0.092;2024-01-10T15:30:35;1022.68;;;3.84;44.51
64230;BME280;50547;49.498;0.092;2024-01-10T15:33:01;1022.71;;;3.78;44.65
64230;BME280;50547;49.498;0.092;2024-01-10T15:35:30;1022.73;;;3.64;45.14
64230;BME280;50547;49.498;0.092;2024-01-10T15:37:59;1022.73;;;3.87;45.16
64230;BME280;50547;49.498;0.092;2024-01-10T15:40:28;1022.75;;;3.61;45.24
64230;BME280;50547;49.498;0.092;2024-01-10T15:42:57;1022.77;;;3.37;46.26
64230;BME280;50547;49.498;0.092;2024-01-10T15:45:26;1022.85;;;3.20;46.88
64230;BME280;50547;49.498;0.092;2024-01-10T15:47:55;1022.89;;;3.31;46.71
64230;BME280;50547;49.498;0.092;2024-01-10T15:50:24;1022.93;;;3.17;46.73
64230;BME280;50547;49.498;0.092;2024-01-10T15:52:53;1022.93;;;3.18;47.08
64230;BME280;50547;49.498;0.092;2024-01-10T15:55:22;1022.95;;;2.50;48.47
64230;BME280;50547;49.498;0.092;2024-01-10T15:57:51;1022.93;;;2.38;49.10
64230;BME280;50547;49.498;0.092;2024-01-10T16:00:20;1022.99;;;2.18;49.36
64230;BME280;50547;49.498;0.092;2024-01-10T16:02:49;1023.01;;;1.94;50.29
64230;BME280;50547;49.498;0.092;2024-01-10T16:05:17;1023.03;;;1.65;50.57
64230;BME280;50547;49.498;0.092;2024-01-10T16:07:46;1023.03;;;1.45;51.47
64230;BME280;50547;49.498;0.092;2024-01-10T16:10:15;1023.05;;;1.33;50.93
64230;BME280;50547;49.498;0.092;2024-01-10T16:12:45;1023.09;;;1.14;51.71
64230;BME280;50547;49.498;0.092;2024-01-10T16:15:14;1023.09;;;0.74;52.95
64230;BME280;50547;49.498;0.092;2024-01-10T16:17:43;1023.07;;;0.82;52.83
64230;BME280;50547;49.498;0.092;2024-01-10T16:20:12;1023.11;;;0.86;52.77
64230;BME280;50547;49.498;0.092;2024-01-10T16:22:41;1023.11;;;0.72;53.40
64230;BME280;50547;49.498;0.092;2024-01-10T16:25:10;1023.07;;;0.55;53.53
64230;BME280;50547;49.498;0.092;2024-01-10T16:27:39;1023.05;;;0.52;53.83
64230;BME280;50547;49.498;0.092;2024-01-10T16:30:09;1023.09;;;0.53;53.31
64230;BME280;50547;49.498;0.092;2024-01-10T16:32:38;1023.15;;;0.53;53.31
64230;BME280;50547;49.498;0.092;2024-01-10T16:35:07;1023.16;;;0.41;53.72
64230;BME280;50547;49.498;0.092;2024-01-10T16:37:36;1023.15;;;0.41;53.69
64230;BME280;50547;49.498;0.092;2024-01-10T16:40:06;1023.11;;;0.31;53.87
64230;BME280;50547;49.498;0.092;2024-01-10T16:42:36;1023.16;;;0.13;54.65
64230;BME280;50547;49.498;0.092;2024-01-10T16:45:05;1023.11;;;0.18;54.50
64230;BME280;50547;49.498;0.092;2024-01-10T16:47:34;1023.13;;;0.10;55.18
64230;BME280;50547;49.498;0.092;2024-01-10T16:50:04;1023.13;;;0.21;54.95
64230;BME280;50547;49.498;0.092;2024-01-10T16:52:33;1023.16;;;0.17;55.16
64230;BME280;50547;49.498;0.092;2024-01-10T16:55:03;1023.16;;;0.11;55.21
64230;BME280;50547;49.498;0.092;2024-01-10T16:57:32;1023.24;;;0.09;55.47
64230;BME280;50547;49.498;0.092;2024-01-10T17:00:01;1023.24;;;-0.06;56.08
64230;BME280;50547;49.498;0.092;2024-01-10T17:02:30;1023.30;;;0.13;55.31
64230;BME280;50547;49.498;0.092;2024-01-10T17:04:59;1023.32;;;0.09;55.83
64230;BME280;50547;49.498;0.092;2024-01-10T17:07:28;1023.32;;;0.05;56.35
64230;BME280;50547;49.498;0.092;2024-01-10T17:09:57;1023.32;;;0.02;56.75
64230;BME280;50547;49.498;0.092;2024-01-10T17:12:26;1023.38;;;0.12;56.27
64230;BME280;50547;49.498;0.092;2024-01-10T17:14:55;1023.42;;;0.07;56.70
64230;BME280;50547;49.498;0.092;2024-01-10T17:17:24;1023.54;;;0.08;56.88
64230;BME280;50547;49.498;0.092;2024-01-10T17:19:53;1023.46;;;0.06;56.70
64230;BME280;50547;49.498;0.092;2024-01-10T17:22:22;1023.46;;;0.15;56.75
64230;BME280;50547;49.498;0.092;2024-01-10T17:24:52;1023.44;;;0.18;56.50
64230;BME280;50547;49.498;0.092;2024-01-10T17:27:21;1023.46;;;0.11;57.15
64230;BME280;50547;49.498;0.092;2024-01-10T17:29:50;1023.56;;;0.12;57.57
64230;BME280;50547;49.498;0.092;2024-01-10T17:32:19;1023.58;;;0.21;57.33
64230;BME280;50547;49.498;0.092;2024-01-10T17:34:48;1023.62;;;0.20;57.56
64230;BME280;50547;49.498;0.092;2024-01-10T17:37:17;1023.60;;;0.14;58.01
64230;BME280;50547;49.498;0.092;2024-01-10T17:39:46;1023.60;;;-0.00;58.83
64230;BME280;50547;49.498;0.092;2024-01-10T17:42:15;1023.60;;;-0.03;59.02
64230;BME280;50547;49.498;0.092;2024-01-10T17:44:41;1023.62;;;0.06;58.80
64230;BME280;50547;49.498;0.092;2024-01-10T17:47:10;1023.62;;;0.10;58.77
64230;BME280;50547;49.498;0.092;2024-01-10T17:49:39;1023.62;;;-0.16;59.61
64230;BME280;50547;49.498;0.092;2024-01-10T17:52:08;1023.64;;;-0.18;60.30
64230;BME280;50547;49.498;0.092;2024-01-10T17:54:37;1023.64;;;-0.28;60.30
64230;BME280;50547;49.498;0.092;2024-01-10T17:57:06;1023.66;;;-0.17;59.97
64230;BME280;50547;49.498;0.092;2024-01-10T17:59:35;1023.70;;;-0.17;60.07
64230;BME280;50547;49.498;0.092;2024-01-10T18:02:01;1023.74;;;-0.06;59.99
64230;BME280;50547;49.498;0.092;2024-01-10T18:04:30;1023.74;;;0.07;59.87
64230;BME280;50547;49.498;0.092;2024-01-10T18:06:59;1023.72;;;0.16;59.63
64230;BME280;50547;49.498;0.092;2024-01-10T18:09:28;1023.76;;;0.25;59.37
64230;BME280;50547;49.498;0.092;2024-01-10T18:12:03;1023.80;;;0.42;59.01
64230;BME280;50547;49.498;0.092;2024-01-10T18:14:33;1023.82;;;0.44;58.98
64230;BME280;50547;49.498;0.092;2024-01-10T18:17:02;1023.90;;;0.50;58.98
64230;BME280;50547;49.498;0.092;2024-01-10T18:19:31;1023.86;;;0.40;59.49
64230;BME280;50547;49.498;0.092;2024-01-10T18:22:00;1023.82;;;0.34;59.76
64230;BME280;50547;49.498;0.092;2024-01-10T18:24:29;1023.96;;;0.54;59.28
64230;BME280;50547;49.498;0.092;2024-01-10T18:26:58;1023.98;;;0.61;59.08
64230;BME280;50547;49.498;0.092;2024-01-10T18:29:27;1023.98;;;0.62;58.95
64230;BME280;50547;49.498;0.092;2024-01-10T18:31:56;1024.00;;;0.73;58.74
64230;BME280;50547;49.498;0.092;2024-01-10T18:34:25;1023.96;;;0.70;58.89
64230;BME280;50547;49.498;0.092;2024-01-10T18:36:54;1023.98;;;0.59;59.37
64230;BME280;50547;49.498;0.092;2024-01-10T18:39:23;1023.92;;;0.68;59.22
64230;BME280;50547;49.498;0.092;2024-01-10T18:41:52;1023.90;;;0.66;59.31
64230;BME280;50547;49.498;0.092;2024-01-10T18:44:21;1024.03;;;0.63;59.59
64230;BME280;50547;49.498;0.092;2024-01-10T18:46:51;1024.03;;;0.54;60.30
64230;BME280;50547;49.498;0.092;2024-01-10T18:49:20;1024.05;;;0.54;60.43
64230;BME280;50547;49.498;0.092;2024-01-10T18:51:49;1024.05;;;0.55;60.81
64230;BME280;50547;49.498;0.092;2024-01-10T18:54:18;1024.13;;;0.49;60.66
64230;BME280;50547;49.498;0.092;2024-01-10T18:56:47;1024.23;;;0.53;60.60
64230;BME280;50547;49.498;0.092;2024-01-10T18:59:16;1024.31;;;0.52;60.74
64230;BME280;50547;49.498;0.092;2024-01-10T19:01:45;1024.33;;;0.29;61.51
64230;BME280;50547;49.498;0.092;2024-01-10T19:04:14;1024.35;;;0.45;60.82
64230;BME280;50547;49.498;0.092;2024-01-10T19:06:43;1024.39;;;0.30;61.08
64230;BME280;50547;49.498;0.092;2024-01-10T19:09:12;1024.41;;;0.24;61.48
64230;BME280;50547;49.498;0.092;2024-01-10T19:11:41;1024.39;;;0.22;61.57
64230;BME280;50547;49.498;0.092;2024-01-10T19:14:10;1024.37;;;0.34;61.60
64230;BME280;50547;49.498;0.092;2024-01-10T19:16:39;1024.37;;;0.46;60.86
64230;BME280;50547;49.498;0.092;2024-01-10T19:19:08;1024.43;;;0.35;61.20
64230;BME280;50547;49.498;0.092;2024-01-10T19:21:37;1024.48;;;0.19;62.41
64230;BME280;50547;49.498;0.092;2024-01-10T19:24:06;1024.52;;;0.18;62.43
64230;BME280;50547;49.498;0.092;2024-01-10T19:26:36;1024.50;;;0.19;62.41
64230;BME280;50547;49.498;0.092;2024-01-10T19:29:05;1024.50;;;0.16;62.44
64230;BME280;50547;49.498;0.092;2024-01-10T19:31:34;1024.45;;;0.01;63.25
64230;BME280;50547;49.498;0.092;2024-01-10T19:34:03;1024.52;;;-0.12;63.60
64230;BME280;50547;49.498;0.092;2024-01-10T19:36:32;1024.50;;;-0.14;63.61
64230;BME280;50547;49.498;0.092;2024-01-10T19:39:01;1024.45;;;-0.10;63.23
64230;BME280;50547;49.498;0.092;2024-01-10T19:41:30;1024.54;;;-0.22;63.77
64230;BME280;50547;49.498;0.092;2024-01-10T19:43:59;1024.56;;;-0.31;63.96
64230;BME280;50547;49.498;0.092;2024-01-10T19:46:28;1024.56;;;-0.33;63.86
64230;BME280;50547;49.498;0.092;2024-01-10T19:48:57;1024.60;;;-0.46;64.63
64230;BME280;50547;49.498;0.092;2024-01-10T19:51:26;1024.66;;;-0.60;65.08
64230;BME280;50547;49.498;0.092;2024-01-10T19:53:55;1024.66;;;-0.61;65.17
64230;BME280;50547;49.498;0.092;2024-01-10T19:56:21;1024.64;;;-0.64;64.92
64230;BME280;50547;49.498;0.092;2024-01-10T19:58:50;1024.60;;;-0.73;65.41
64230;BME280;50547;49.498;0.092;2024-01-10T20:01:19;1024.62;;;-0.78;65.62
64230;BME280;50547;49.498;0.092;2024-01-10T20:03:48;1024.66;;;-0.77;65.64
64230;BME280;50547;49.498;0.092;2024-01-10T20:06:17;1024.66;;;-0.78;65.51
64230;BME280;50547;49.498;0.092;2024-01-10T20:08:46;1024.66;;;-0.97;66.31
64230;BME280;50547;49.498;0.092;2024-01-10T20:11:15;1024.72;;;-0.89;66.29
64230;BME280;50547;49.498;0.092;2024-01-10T20:13:44;1024.72;;;-0.97;66.56
64230;BME280;50547;49.498;0.092;2024-01-10T20:16:13;1024.74;;;-0.95;66.29
64230;BME280;50547;49.498;0.092;2024-01-10T20:18:42;1024.80;;;-1.07;67.14
64230;BME280;50547;49.498;0.092;2024-01-10T20:21:14;1024.84;;;-1.02;66.50
64230;BME280;50547;49.498;0.092;2024-01-10T20:23:43;1024.78;;;-1.10;66.86
64230;BME280;50547;49.498;0.092;2024-01-10T20:26:12;1024.76;;;-1.09;66.97
64230;BME280;50547;49.498;0.092;2024-01-10T20:28:42;1024.74;;;-1.23;67.49
64230;BME280;50547;49.498;0.092;2024-01-10T20:31:11;1024.80;;;-1.19;67.29
64230;BME280;50547;49.498;0.092;2024-01-10T20:33:40;1024.80;;;-1.15;66.89
64230;BME280;50547;49.498;0.092;2024-01-10T20:36:09;1024.78;;;-1.19;66.87
64230;BME280;50547;49.498;0.092;2024-01-10T20:38:38;1024.74;;;-1.23;67.09
64230;BME280;50547;49.498;0.092;2024-01-10T20:41:07;1024.84;;;-1.31;67.41
64230;BME280;50547;49.498;0.092;2024-01-10T20:43:36;1024.89;;;-1.26;67.24
64230;BME280;50547;49.498;0.092;2024-01-10T20:46:05;1024.87;;;-1.22;67.22
64230;BME280;50547;49.498;0.092;2024-01-10T20:48:34;1024.95;;;-1.25;67.50
64230;BME280;50547;49.498;0.092;2024-01-10T20:51:03;1025.03;;;-1.35;67.82
64230;BME280;50547;49.498;0.092;2024-01-10T20:53:32;1025.07;;;-1.39;67.95
64230;BME280;50547;49.498;0.092;2024-01-10T20:56:06;1025.19;;;-1.48;68.17
64230;BME280;50547;49.498;0.092;2024-01-10T20:58:35;1025.13;;;-1.47;67.81
64230;BME280;50547;49.498;0.092;2024-01-10T21:01:04;1025.15;;;-1.46;67.70
64230;BME280;50547;49.498;0.092;2024-01-10T21:03:33;1025.19;;;-1.52;67.93
64230;BME280;50547;49.498;0.092;2024-01-10T21:06:03;1025.19;;;-1.51;67.96
64230;BME280;50547;49.498;0.092;2024-01-10T21:08:32;1025.27;;;-1.54;68.20
64230;BME280;50547;49.498;0.092;2024-01-10T21:11:01;1025.27;;;-1.43;67.59
64230;BME280;50547;49.498;0.092;2024-01-10T21:13:30;1025.25;;;-1.46;67.69
64230;BME280;50547;49.498;0.092;2024-01-10T21:15:59;1025.23;;;-1.49;67.61
64230;BME280;50547;49.498;0.092;2024-01-10T21:18:28;1025.23;;;-1.32;67.57
64230;BME280;50547;49.498;0.092;2024-01-10T21:20:57;1025.40;;;-1.37;67.28
64230;BME280;50547;49.498;0.092;2024-01-10T21:23:27;1025.38;;;-1.20;67.00
64230;BME280;50547;49.498;0.092;2024-01-10T21:25:56;1025.52;;;-1.21;67.03
64230;BME280;50547;49.498;0.092;2024-01-10T21:28:25;1025.50;;;-1.04;66.57
64230;BME280;50547;49.498;0.092;2024-01-10T21:30:54;1025.50;;;-1.09;66.72
64230;BME280;50547;49.498;0.092;2024-01-10T21:33:23;1025.46;;;-1.10;66.50
64230;BME280;50547;49.498;0.092;2024-01-10T21:35:52;1025.52;;;-1.23;66.88
64230;BME280;50547;49.498;0.092;2024-01-10T21:38:21;1025.54;;;-1.14;66.55
64230;BME280;50547;49.498;0.092;2024-01-10T21:40:50;1025.56;;;-1.12;66.39
64230;BME280;50547;49.498;0.092;2024-01-10T21:43:19;1025.58;;;-1.14;66.52
64230;BME280;50547;49.498;0.092;2024-01-10T21:45:48;1025.60;;;-1.25;67.08
64230;BME280;50547;49.498;0.092;2024-01-10T21:48:17;1025.56;;;-1.19;66.82
64230;BME280;50547;49.498;0.092;2024-01-10T21:50:46;1025.58;;;-1.31;67.10
64230;BME280;50547;49.498;0.092;2024-01-10T21:53:15;1025.64;;;-1.23;66.92
64230;BME280;50547;49.498;0.092;2024-01-10T21:55:44;1025.72;;;-1.24;66.81
64230;BME280;50547;49.498;0.092;2024-01-10T21:58:14;1025.72;;;-1.28;67.12
64230;BME280;50547;49.498;0.092;2024-01-10T22:00:43;1025.74;;;-1.22;66.87
64230;BME280;50547;49.498;0.092;2024-01-10T22:03:12;1025.76;;;-1.35;67.20
64230;BME280;50547;49.498;0.092;2024-01-10T22:05:41;1025.83;;;-1.41;67.60
64230;BME280;50547;49.498;0.092;2024-01-10T22:08:07;1025.85;;;-1.42;67.75
64230;BME280;50547;49.498;0.092;2024-01-10T22:10:36;1025.81;;;-1.55;68.25
64230;BME280;50547;49.498;0.092;2024-01-10T22:13:05;1025.89;;;-1.38;67.65
64230;BME280;50547;49.498;0.092;2024-01-10T22:15:34;1025.93;;;-1.44;67.14
64230;BME280;50547;49.498;0.092;2024-01-10T22:18:04;1025.99;;;-1.30;66.58
64230;BME280;50547;49.498;0.092;2024-01-10T22:20:33;1026.03;;;-1.21;66.23
64230;BME280;50547;49.498;0.092;2024-01-10T22:23:02;1026.16;;;-1.09;65.97
64230;BME280;50547;49.498;0.092;2024-01-10T22:25:31;1026.16;;;-1.04;65.86
64230;BME280;50547;49.498;0.092;2024-01-10T22:28:00;1026.23;;;-0.93;65.42
64230;BME280;50547;49.498;0.092;2024-01-10T22:30:35;1026.21;;;-1.01;66.37
64230;BME280;50547;49.498;0.092;2024-01-10T22:33:04;1026.19;;;-1.08;67.00
64230;BME280;50547;49.498;0.092;2024-01-10T22:35:33;1026.16;;;-1.21;67.47
64230;BME280;50547;49.498;0.092;2024-01-10T22:38:02;1026.29;;;-1.20;67.25
64230;BME280;50547;49.498;0.092;2024-01-10T22:40:31;1026.29;;;-1.20;67.05
64230;BME280;50547;49.498;0.092;2024-01-10T22:43:00;1026.35;;;-1.28;67.41
64230;BME280;50547;49.498;0.092;2024-01-10T22:45:29;1026.37;;;-1.22;67.26
64230;BME280;50547;49.498;0.092;2024-01-10T22:47:58;1026.43;;;-1.17;66.92
64230;BME280;50547;49.498;0.092;2024-01-10T22:50:27;1026.41;;;-1.23;67.32
64230;BME280;50547;49.498;0.092;2024-01-10T22:52:56;1026.43;;;-1.27;67.28
64230;BME280;50547;49.498;0.092;2024-01-10T22:55:25;1026.45;;;-1.32;67.54
64230;BME280;50547;49.498;0.092;2024-01-10T22:57:54;1026.41;;;-1.52;68.55
64230;BME280;50547;49.498;0.092;2024-01-10T23:00:23;1026.45;;;-1.29;67.42
64230;BME280;50547;49.498;0.092;2024-01-10T23:02:52;1026.39;;;-1.42;68.02
64230;BME280;50547;49.498;0.092;2024-01-10T23:05:21;1026.41;;;-1.39;67.75
64230;BME280;50547;49.498;0.092;2024-01-10T23:07:51;1026.41;;;-1.40;67.65
64230;BME280;50547;49.498;0.092;2024-01-10T23:10:20;1026.39;;;-1.21;67.10
64230;BME280;50547;49.498;0.092;2024-01-10T23:12:49;1026.43;;;-1.22;67.16
64230;BME280;50547;49.498;0.092;2024-01-10T23:15:18;1026.41;;;-1.06;66.65
64230;BME280;50547;49.498;0.092;2024-01-10T23:17:47;1026.39;;;-0.82;65.78
64230;BME280;50547;49.498;0.092;2024-01-10T23:20:16;1026.43;;;-0.97;66.27
64230;BME280;50547;49.498;0.092;2024-01-10T23:22:50;1026.45;;;-1.10;67.22
64230;BME280;50547;49.498;0.092;2024-01-10T23:25:19;1026.43;;;-1.06;66.92
64230;BME280;50547;49.498;0.092;2024-01-10T23:27:48;1026.43;;;-0.98;66.65
64230;BME280;50547;49.498;0.092;2024-01-10T23:30:17;1026.41;;;-0.89;66.24
64230;BME280;50547;49.498;0.092;2024-01-10T23:32:46;1026.39;;;-0.99;66.82
64230;BME280;50547;49.498;0.092;2024-01-10T23:35:15;1026.35;;;-1.07;67.25
64230;BME280;50547;49.498;0.092;2024-01-10T23:37:44;1026.37;;;-0.94;66.45
64230;BME280;50547;49.498;0.092;2024-01-10T23:40:13;1026.37;;;-0.86;66.22
64230;BME280;50547;49.498;0.092;2024-01-10T23:42:42;1026.39;;;-0.90;66.47
64230;BME280;50547;49.498;0.092;2024-01-10T23:45:11;1026.37;;;-1.06;66.90
64230;BME280;50547;49.498;0.092;2024-01-10T23:47:40;1026.35;;;-1.01;66.94
64230;BME280;50547;49.498;0.092;2024-01-10T23:50:09;1026.39;;;-1.10;67.15
64230;BME280;50547;49.498;0.092;2024-01-10T23:52:38;1026.43;;;-1.06;67.09
64230;BME280;50547;49.498;0.092;2024-01-10T23:55:07;1026.47;;;-0.84;65.81
64230;BME280;50547;49.498;0.092;2024-01-10T23:57:36;1026.47;;;-1.07;66.96
